sensor_id;sensor_type;location;lat;lon;timestamp;P1;durP1;ratioP1;P2;durP2;ratioP2
48685;SDS011;34485;51.536;3.816;2022-09-01T00:01:25;4.20;;;2.35;;
48685;SDS011;34485;51.536;3.816;2022-09-01T00:03:52;3.92;;;2.08;;
48685;SDS011;34485;51.536;3.816;2022-09-01T00:06:19;3.10;;;2.03;;
48685;SDS011;34485;51.536;3.816;2022-09-01T00:08:55;2.42;;;2.05;;
48685;SDS011;34485;51.536;3.816;2022-09-01T00:11:23;7.30;;;2.47;;
48685;SDS011;34485;51.536;3.816;2022-09-01T00:13:51;1.65;;;1.40;;
48685;SDS011;34485;51.536;3.816;2022-09-01T00:16:18;2.38;;;2.28;;
48685;SDS011;34485;51.536;3.816;2022-09-01T00:18:45;3.87;;;2.03;;
48685;SDS011;34485;51.536;3.816;2022-09-01T00:21:14;5.78;;;1.42;;
48685;SDS011;34485;51.536;3.816;2022-09-01T00:23:41;3.25;;;2.17;;
48685;SDS011;34485;51.536;3.816;2022-09-01T00:26:07;2.00;;;1.80;;
48685;SDS011;34485;51.536;3.816;2022-09-01T00:28:33;2.90;;;1.67;;
48685;SDS011;34485;51.536;3.816;2022-09-01T00:31:00;3.15;;;2.17;;
48685;SDS011;34485;51.536;3.816;2022-09-01T00:33:26;2.55;;;2.10;;
48685;SDS011;34485;51.536;3.816;2022-09-01T00:35:52;2.60;;;2.40;;
48685;SDS011;34485;51.536;3.816;2022-09-01T00:38:18;1.87;;;1.77;;
48685;SDS011;34485;51.536;3.816;2022-09-01T00:40:44;3.38;;;1.73;;
48685;SDS011;34485;51.536;3.816;2022-09-01T00:43:14;3.15;;;2.10;;
48685;SDS011;34485;51.536;3.816;2022-09-01T00:45:44;2.13;;;1.93;;
48685;SDS011;34485;51.536;3.816;2022-09-01T00:48:10;2.28;;;2.17;;
48685;SDS011;34485;51.536;3.816;2022-09-01T00:50:37;2.10;;;2.00;;
48685;SDS011;34485;51.536;3.816;2022-09-01T00:53:03;5.78;;;2.50;;
48685;SDS011;34485;51.536;3.816;2022-09-01T00:55:32;2.75;;;2.55;;
48685;SDS011;34485;51.536;3.816;2022-09-01T00:58:00;2.13;;;1.60;;
48685;SDS011;34485;51.536;3.816;2022-09-01T01:00:30;6.10;;;2.33;;
48685;SDS011;34485;51.536;3.816;2022-09-01T01:02:57;2.45;;;1.70;;
48685;SDS011;34485;51.536;3.816;2022-09-01T01:05:30;3.20;;;2.43;;
48685;SDS011;34485;51.536;3.816;2022-09-01T01:07:58;2.83;;;2.28;;
48685;SDS011;34485;51.536;3.816;2022-09-01T01:10:26;2.83;;;1.83;;
48685;SDS011;34485;51.536;3.816;2022-09-01T01:12:57;1.75;;;1.30;;
48685;SDS011;34485;51.536;3.816;2022-09-01T01:15:26;6.13;;;2.85;;
48685;SDS011;34485;51.536;3.816;2022-09-01T01:17:52;3.00;;;2.00;;
48685;SDS011;34485;51.536;3.816;2022-09-01T01:20:21;3.22;;;1.88;;
48685;SDS011;34485;51.536;3.816;2022-09-01T01:23:20;4.72;;;2.30;;
48685;SDS011;34485;51.536;3.816;2022-09-01T01:25:58;2.25;;;1.85;;
48685;SDS011;34485;51.536;3.816;2022-09-01T01:28:28;2.08;;;1.98;;
48685;SDS011;34485;51.536;3.816;2022-09-01T01:30:57;2.80;;;2.60;;
48685;SDS011;34485;51.536;3.816;2022-09-01T01:33:30;3.40;;;1.88;;
48685;SDS011;34485;51.536;3.816;2022-09-01T01:35:58;3.10;;;1.85;;
48685;SDS011;34485;51.536;3.816;2022-09-01T01:38:25;2.80;;;2.22;;
48685;SDS011;34485;51.536;3.816;2022-09-01T01:40:52;2.67;;;2.20;;
48685;SDS011;34485;51.536;3.816;2022-09-01T01:43:18;2.17;;;1.57;;
48685;SDS011;34485;51.536;3.816;2022-09-01T01:45:46;6.05;;;2.28;;
48685;SDS011;34485;51.536;3.816;2022-09-01T01:48:14;2.63;;;2.30;;
48685;SDS011;34485;51.536;3.816;2022-09-01T01:50:42;3.10;;;1.83;;
48685;SDS011;34485;51.536;3.816;2022-09-01T01:53:10;3.03;;;2.20;;
48685;SDS011;34485;51.536;3.816;2022-09-01T01:55:35;1.43;;;1.30;;
48685;SDS011;34485;51.536;3.816;2022-09-01T01:58:01;2.35;;;2.00;;
48685;SDS011;34485;51.536;3.816;2022-09-01T02:00:29;2.05;;;1.90;;
48685;SDS011;34485;51.536;3.816;2022-09-01T02:02:58;2.47;;;1.37;;
48685;SDS011;34485;51.536;3.816;2022-09-01T02:08:10;2.22;;;2.13;;
48685;SDS011;34485;51.536;3.816;2022-09-01T02:10:39;4.32;;;2.20;;
48685;SDS011;34485;51.536;3.816;2022-09-01T02:13:08;3.10;;;2.90;;
48685;SDS011;34485;51.536;3.816;2022-09-01T02:15:40;3.40;;;2.27;;
48685;SDS011;34485;51.536;3.816;2022-09-01T02:18:16;5.43;;;2.03;;
48685;SDS011;34485;51.536;3.816;2022-09-01T02:20:44;7.88;;;2.30;;
48685;SDS011;34485;51.536;3.816;2022-09-01T02:23:11;1.70;;;1.60;;
48685;SDS011;34485;51.536;3.816;2022-09-01T02:25:40;2.47;;;2.28;;
48685;SDS011;34485;51.536;3.816;2022-09-01T02:28:08;2.17;;;1.97;;
48685;SDS011;34485;51.536;3.816;2022-09-01T02:30:43;3.92;;;2.30;;
48685;SDS011;34485;51.536;3.816;2022-09-01T02:33:11;3.28;;;2.53;;
48685;SDS011;34485;51.536;3.816;2022-09-01T02:35:46;2.45;;;2.22;;
48685;SDS011;34485;51.536;3.816;2022-09-01T02:38:14;2.75;;;2.55;;
48685;SDS011;34485;51.536;3.816;2022-09-01T02:40:41;2.63;;;1.80;;
48685;SDS011;34485;51.536;3.816;2022-09-01T02:43:11;4.28;;;1.77;;
48685;SDS011;34485;51.536;3.816;2022-09-01T02:45:40;3.97;;;3.13;;
48685;SDS011;34485;51.536;3.816;2022-09-01T02:48:08;2.25;;;2.13;;
48685;SDS011;34485;51.536;3.816;2022-09-01T02:50:35;2.40;;;2.20;;
48685;SDS011;34485;51.536;3.816;2022-09-01T02:53:01;3.90;;;2.20;;
48685;SDS011;34485;51.536;3.816;2022-09-01T02:55:30;2.10;;;1.90;;
48685;SDS011;34485;51.536;3.816;2022-09-01T02:57:56;2.67;;;2.05;;
48685;SDS011;34485;51.536;3.816;2022-09-01T03:00:22;5.63;;;2.10;;
48685;SDS011;34485;51.536;3.816;2022-09-01T03:02:56;3.13;;;2.77;;
48685;SDS011;34485;51.536;3.816;2022-09-01T03:05:24;3.63;;;3.03;;
48685;SDS011;34485;51.536;3.816;2022-09-01T03:07:52;2.47;;;2.15;;
48685;SDS011;34485;51.536;3.816;2022-09-01T03:10:21;5.05;;;1.83;;
48685;SDS011;34485;51.536;3.816;2022-09-01T03:12:57;2.20;;;2.00;;
48685;SDS011;34485;51.536;3.816;2022-09-01T03:15:24;2.53;;;1.87;;
48685;SDS011;34485;51.536;3.816;2022-09-01T03:17:51;2.05;;;1.95;;
48685;SDS011;34485;51.536;3.816;2022-09-01T03:20:17;2.03;;;1.80;;
48685;SDS011;34485;51.536;3.816;2022-09-01T03:22:45;4.18;;;2.80;;
48685;SDS011;34485;51.536;3.816;2022-09-01T03:25:12;4.57;;;2.00;;
48685;SDS011;34485;51.536;3.816;2022-09-01T03:27:38;2.63;;;2.45;;
48685;SDS011;34485;51.536;3.816;2022-09-01T03:30:04;3.35;;;2.58;;
48685;SDS011;34485;51.536;3.816;2022-09-01T03:32:31;3.90;;;2.17;;
48685;SDS011;34485;51.536;3.816;2022-09-01T03:34:56;9.53;;;2.93;;
48685;SDS011;34485;51.536;3.816;2022-09-01T03:37:22;3.17;;;2.30;;
48685;SDS011;34485;51.536;3.816;2022-09-01T03:39:48;2.37;;;2.17;;
48685;SDS011;34485;51.536;3.816;2022-09-01T03:42:14;3.35;;;2.72;;
48685;SDS011;34485;51.536;3.816;2022-09-01T03:44:49;4.13;;;2.17;;
48685;SDS011;34485;51.536;3.816;2022-09-01T03:47:16;3.40;;;2.53;;
48685;SDS011;34485;51.536;3.816;2022-09-01T03:49:42;2.70;;;2.50;;
48685;SDS011;34485;51.536;3.816;2022-09-01T03:52:10;2.57;;;2.07;;
48685;SDS011;34485;51.536;3.816;2022-09-01T03:54:36;3.45;;;2.45;;
48685;SDS011;34485;51.536;3.816;2022-09-01T03:57:02;3.50;;;2.65;;
48685;SDS011;34485;51.536;3.816;2022-09-01T03:59:31;2.53;;;2.42;;
48685;SDS011;34485;51.536;3.816;2022-09-01T04:01:57;5.78;;;2.03;;
48685;SDS011;34485;51.536;3.816;2022-09-01T04:04:24;4.10;;;2.37;;
48685;SDS011;34485;51.536;3.816;2022-09-01T04:06:50;5.90;;;2.22;;
48685;SDS011;34485;51.536;3.816;2022-09-01T04:09:15;3.15;;;2.55;;
48685;SDS011;34485;51.536;3.816;2022-09-01T04:11:41;3.87;;;3.47;;
48685;SDS011;34485;51.536;3.816;2022-09-01T04:14:10;2.85;;;2.65;;
48685;SDS011;34485;51.536;3.816;2022-09-01T04:16:36;9.77;;;2.25;;
48685;SDS011;34485;51.536;3.816;2022-09-01T04:19:22;4.40;;;2.93;;
48685;SDS011;34485;51.536;3.816;2022-09-01T04:21:51;4.63;;;2.75;;
48685;SDS011;34485;51.536;3.816;2022-09-01T04:24:23;6.45;;;2.90;;
48685;SDS011;34485;51.536;3.816;2022-09-01T04:26:52;5.10;;;3.17;;
48685;SDS011;34485;51.536;3.816;2022-09-01T04:29:23;4.20;;;2.90;;
48685;SDS011;34485;51.536;3.816;2022-09-01T04:32:13;5.57;;;2.87;;
48685;SDS011;34485;51.536;3.816;2022-09-01T04:34:39;3.25;;;2.40;;
48685;SDS011;34485;51.536;3.816;2022-09-01T04:37:09;4.80;;;2.25;;
48685;SDS011;34485;51.536;3.816;2022-09-01T04:39:39;6.60;;;3.33;;
48685;SDS011;34485;51.536;3.816;2022-09-01T04:42:12;6.55;;;3.08;;
48685;SDS011;34485;51.536;3.816;2022-09-01T04:44:38;2.60;;;2.23;;
48685;SDS011;34485;51.536;3.816;2022-09-01T04:47:04;3.38;;;3.17;;
48685;SDS011;34485;51.536;3.816;2022-09-01T04:49:35;6.47;;;2.58;;
48685;SDS011;34485;51.536;3.816;2022-09-01T04:52:01;3.35;;;3.15;;
48685;SDS011;34485;51.536;3.816;2022-09-01T04:54:28;3.80;;;3.30;;
48685;SDS011;34485;51.536;3.816;2022-09-01T04:56:56;3.57;;;2.63;;
48685;SDS011;34485;51.536;3.816;2022-09-01T04:59:23;3.63;;;3.17;;
48685;SDS011;34485;51.536;3.816;2022-09-01T05:01:51;5.90;;;2.97;;
48685;SDS011;34485;51.536;3.816;2022-09-01T05:04:20;6.43;;;3.25;;
48685;SDS011;34485;51.536;3.816;2022-09-01T05:06:49;4.37;;;3.07;;
48685;SDS011;34485;51.536;3.816;2022-09-01T05:09:21;6.35;;;3.20;;
48685;SDS011;34485;51.536;3.816;2022-09-01T05:11:49;4.53;;;2.75;;
48685;SDS011;34485;51.536;3.816;2022-09-01T05:14:15;3.28;;;2.95;;
48685;SDS011;34485;51.536;3.816;2022-09-01T05:16:44;3.35;;;2.65;;
48685;SDS011;34485;51.536;3.816;2022-09-01T05:19:11;3.40;;;3.10;;
48685;SDS011;34485;51.536;3.816;2022-09-01T05:21:39;6.82;;;3.83;;
48685;SDS011;34485;51.536;3.816;2022-09-01T05:24:09;3.33;;;2.95;;
48685;SDS011;34485;51.536;3.816;2022-09-01T05:26:41;3.40;;;3.10;;
48685;SDS011;34485;51.536;3.816;2022-09-01T05:29:08;5.30;;;3.05;;
48685;SDS011;34485;51.536;3.816;2022-09-01T05:31:37;3.50;;;3.30;;
48685;SDS011;34485;51.536;3.816;2022-09-01T05:34:05;2.85;;;2.67;;
48685;SDS011;34485;51.536;3.816;2022-09-01T05:36:34;7.07;;;3.17;;
48685;SDS011;34485;51.536;3.816;2022-09-01T05:39:02;3.83;;;3.40;;
48685;SDS011;34485;51.536;3.816;2022-09-01T05:41:29;3.90;;;3.60;;
48685;SDS011;34485;51.536;3.816;2022-09-01T05:43:57;3.47;;;2.93;;
48685;SDS011;34485;51.536;3.816;2022-09-01T05:46:24;4.28;;;3.35;;
48685;SDS011;34485;51.536;3.816;2022-09-01T05:48:52;2.97;;;2.78;;
48685;SDS011;34485;51.536;3.816;2022-09-01T05:51:20;5.13;;;3.03;;
48685;SDS011;34485;51.536;3.816;2022-09-01T05:53:48;2.70;;;2.33;;
48685;SDS011;34485;51.536;3.816;2022-09-01T05:56:17;6.45;;;3.22;;
48685;SDS011;34485;51.536;3.816;2022-09-01T05:58:44;2.30;;;2.10;;
48685;SDS011;34485;51.536;3.816;2022-09-01T06:01:18;2.95;;;2.53;;
48685;SDS011;34485;51.536;3.816;2022-09-01T06:03:56;3.10;;;2.72;;
48685;SDS011;34485;51.536;3.816;2022-09-01T06:06:22;3.03;;;2.73;;
48685;SDS011;34485;51.536;3.816;2022-09-01T06:08:50;3.00;;;2.45;;
48685;SDS011;34485;51.536;3.816;2022-09-01T06:11:18;3.35;;;3.05;;
48685;SDS011;34485;51.536;3.816;2022-09-01T06:13:44;2.90;;;2.70;;
48685;SDS011;34485;51.536;3.816;2022-09-01T06:16:12;3.80;;;3.38;;
48685;SDS011;34485;51.536;3.816;2022-09-01T06:18:40;2.80;;;2.17;;
48685;SDS011;34485;51.536;3.816;2022-09-01T06:21:07;4.00;;;3.42;;
48685;SDS011;34485;51.536;3.816;2022-09-01T06:23:38;3.47;;;3.28;;
48685;SDS011;34485;51.536;3.816;2022-09-01T06:26:17;6.47;;;2.83;;
48685;SDS011;34485;51.536;3.816;2022-09-01T06:28:43;5.82;;;3.25;;
48685;SDS011;34485;51.536;3.816;2022-09-01T06:31:09;2.83;;;2.43;;
48685;SDS011;34485;51.536;3.816;2022-09-01T06:33:36;12.90;;;2.90;;
48685;SDS011;34485;51.536;3.816;2022-09-01T06:36:03;7.50;;;2.63;;
48685;SDS011;34485;51.536;3.816;2022-09-01T06:38:29;5.78;;;3.33;;
48685;SDS011;34485;51.536;3.816;2022-09-01T06:40:59;10.60;;;4.13;;
48685;SDS011;34485;51.536;3.816;2022-09-01T06:43:37;3.63;;;2.93;;
48685;SDS011;34485;51.536;3.816;2022-09-01T06:46:06;8.15;;;2.95;;
48685;SDS011;34485;51.536;3.816;2022-09-01T06:48:34;22.13;;;4.20;;
48685;SDS011;34485;51.536;3.816;2022-09-01T06:51:01;3.00;;;2.80;;
48685;SDS011;34485;51.536;3.816;2022-09-01T06:53:30;3.95;;;3.13;;
48685;SDS011;34485;51.536;3.816;2022-09-01T06:55:58;8.73;;;3.20;;
48685;SDS011;34485;51.536;3.816;2022-09-01T06:58:24;5.63;;;2.85;;
48685;SDS011;34485;51.536;3.816;2022-09-01T07:00:50;11.70;;;3.03;;
48685;SDS011;34485;51.536;3.816;2022-09-01T07:03:16;7.53;;;2.93;;
48685;SDS011;34485;51.536;3.816;2022-09-01T07:05:43;13.27;;;4.20;;
48685;SDS011;34485;51.536;3.816;2022-09-01T07:08:12;5.78;;;2.75;;
48685;SDS011;34485;51.536;3.816;2022-09-01T07:10:44;3.85;;;3.08;;
48685;SDS011;34485;51.536;3.816;2022-09-01T07:13:15;4.18;;;2.90;;
48685;SDS011;34485;51.536;3.816;2022-09-01T07:15:46;7.97;;;3.63;;
48685;SDS011;34485;51.536;3.816;2022-09-01T07:18:13;5.75;;;3.38;;
48685;SDS011;34485;51.536;3.816;2022-09-01T07:20:45;5.20;;;4.07;;
48685;SDS011;34485;51.536;3.816;2022-09-01T07:23:12;3.63;;;3.28;;
48685;SDS011;34485;51.536;3.816;2022-09-01T07:25:41;3.80;;;2.97;;
48685;SDS011;34485;51.536;3.816;2022-09-01T07:28:09;5.37;;;3.60;;
48685;SDS011;34485;51.536;3.816;2022-09-01T07:30:45;5.68;;;3.95;;
48685;SDS011;34485;51.536;3.816;2022-09-01T07:33:13;10.15;;;3.55;;
48685;SDS011;34485;51.536;3.816;2022-09-01T07:35:40;4.00;;;3.63;;
48685;SDS011;34485;51.536;3.816;2022-09-01T07:38:06;7.78;;;3.70;;
48685;SDS011;34485;51.536;3.816;2022-09-01T07:40:33;4.13;;;3.17;;
48685;SDS011;34485;51.536;3.816;2022-09-01T07:43:04;5.68;;;3.35;;
48685;SDS011;34485;51.536;3.816;2022-09-01T07:45:33;7.43;;;3.67;;
48685;SDS011;34485;51.536;3.816;2022-09-01T07:48:01;4.70;;;3.70;;
48685;SDS011;34485;51.536;3.816;2022-09-01T07:50:30;5.28;;;3.28;;
48685;SDS011;34485;51.536;3.816;2022-09-01T07:53:02;3.47;;;3.17;;
48685;SDS011;34485;51.536;3.816;2022-09-01T07:55:28;6.72;;;3.45;;
48685;SDS011;34485;51.536;3.816;2022-09-01T07:57:55;6.40;;;3.88;;
48685;SDS011;34485;51.536;3.816;2022-09-01T08:00:22;10.30;;;4.15;;
48685;SDS011;34485;51.536;3.816;2022-09-01T08:02:48;4.70;;;3.37;;
48685;SDS011;34485;51.536;3.816;2022-09-01T08:05:15;4.57;;;3.60;;
48685;SDS011;34485;51.536;3.816;2022-09-01T08:07:46;6.10;;;3.90;;
48685;SDS011;34485;51.536;3.816;2022-09-01T08:10:13;3.92;;;3.60;;
48685;SDS011;34485;51.536;3.816;2022-09-01T08:12:39;4.83;;;3.63;;
48685;SDS011;34485;51.536;3.816;2022-09-01T08:15:05;5.60;;;3.65;;
48685;SDS011;34485;51.536;3.816;2022-09-01T08:17:32;5.18;;;3.40;;
48685;SDS011;34485;51.536;3.816;2022-09-01T08:19:58;7.17;;;4.10;;
48685;SDS011;34485;51.536;3.816;2022-09-01T08:22:24;5.07;;;4.57;;
48685;SDS011;34485;51.536;3.816;2022-09-01T08:24:51;6.88;;;4.05;;
48685;SDS011;34485;51.536;3.816;2022-09-01T08:27:17;8.43;;;4.07;;
48685;SDS011;34485;51.536;3.816;2022-09-01T08:29:43;6.80;;;3.80;;
48685;SDS011;34485;51.536;3.816;2022-09-01T08:32:09;3.75;;;3.45;;
48685;SDS011;34485;51.536;3.816;2022-09-01T08:34:35;6.25;;;4.30;;
48685;SDS011;34485;51.536;3.816;2022-09-01T08:37:01;4.63;;;3.28;;
48685;SDS011;34485;51.536;3.816;2022-09-01T08:39:28;4.60;;;3.37;;
48685;SDS011;34485;51.536;3.816;2022-09-01T08:44:40;8.23;;;4.63;;
48685;SDS011;34485;51.536;3.816;2022-09-01T08:47:13;5.93;;;3.43;;
48685;SDS011;34485;51.536;3.816;2022-09-01T08:49:41;4.90;;;3.50;;
48685;SDS011;34485;51.536;3.816;2022-09-01T08:52:13;5.32;;;3.30;;
48685;SDS011;34485;51.536;3.816;2022-09-01T08:54:50;8.10;;;4.20;;
48685;SDS011;34485;51.536;3.816;2022-09-01T08:57:20;3.50;;;3.20;;
48685;SDS011;34485;51.536;3.816;2022-09-01T08:59:51;4.10;;;3.70;;
48685;SDS011;34485;51.536;3.816;2022-09-01T09:10:42;7.93;;;3.53;;
48685;SDS011;34485;51.536;3.816;2022-09-01T09:13:43;3.67;;;3.37;;
48685;SDS011;34485;51.536;3.816;2022-09-01T09:16:20;5.03;;;3.20;;
48685;SDS011;34485;51.536;3.816;2022-09-01T09:18:58;4.15;;;3.28;;
48685;SDS011;34485;51.536;3.816;2022-09-01T09:21:35;8.05;;;4.00;;
48685;SDS011;34485;51.536;3.816;2022-09-01T09:24:24;4.10;;;3.50;;
48685;SDS011;34485;51.536;3.816;2022-09-01T09:27:29;4.87;;;3.33;;
48685;SDS011;34485;51.536;3.816;2022-09-01T09:30:00;7.50;;;3.83;;
48685;SDS011;34485;51.536;3.816;2022-09-01T09:35:30;4.47;;;4.07;;
48685;SDS011;34485;51.536;3.816;2022-09-01T09:43:29;4.03;;;3.67;;
48685;SDS011;34485;51.536;3.816;2022-09-01T09:46:22;4.57;;;3.90;;
48685;SDS011;34485;51.536;3.816;2022-09-01T09:48:49;6.47;;;3.72;;
48685;SDS011;34485;51.536;3.816;2022-09-01T09:51:33;5.97;;;3.63;;
48685;SDS011;34485;51.536;3.816;2022-09-01T09:56:42;4.47;;;4.03;;
48685;SDS011;34485;51.536;3.816;2022-09-01T10:01:48;6.00;;;3.83;;
48685;SDS011;34485;51.536;3.816;2022-09-01T10:04:29;6.13;;;3.57;;
48685;SDS011;34485;51.536;3.816;2022-09-01T10:06:57;6.60;;;4.45;;
48685;SDS011;34485;51.536;3.816;2022-09-01T10:11:50;9.07;;;4.10;;
48685;SDS011;34485;51.536;3.816;2022-09-01T10:14:19;4.80;;;3.47;;
48685;SDS011;34485;51.536;3.816;2022-09-01T10:16:49;4.85;;;4.45;;
48685;SDS011;34485;51.536;3.816;2022-09-01T10:19:19;4.35;;;3.53;;
48685;SDS011;34485;51.536;3.816;2022-09-01T10:21:46;9.10;;;3.97;;
48685;SDS011;34485;51.536;3.816;2022-09-01T10:24:24;9.38;;;4.22;;
48685;SDS011;34485;51.536;3.816;2022-09-01T10:26:56;4.13;;;3.38;;
48685;SDS011;34485;51.536;3.816;2022-09-01T10:29:26;4.63;;;3.70;;
48685;SDS011;34485;51.536;3.816;2022-09-01T10:31:58;6.43;;;3.90;;
48685;SDS011;34485;51.536;3.816;2022-09-01T10:34:26;6.72;;;3.90;;
48685;SDS011;34485;51.536;3.816;2022-09-01T10:36:58;5.45;;;4.20;;
48685;SDS011;34485;51.536;3.816;2022-09-01T10:39:25;4.75;;;3.90;;
48685;SDS011;34485;51.536;3.816;2022-09-01T10:41:52;8.37;;;4.30;;
48685;SDS011;34485;51.536;3.816;2022-09-01T10:44:30;9.27;;;3.75;;
48685;SDS011;34485;51.536;3.816;2022-09-01T10:47:41;3.83;;;3.53;;
48685;SDS011;34485;51.536;3.816;2022-09-01T10:49:57;9.52;;;4.78;;
48685;SDS011;34485;51.536;3.816;2022-09-01T10:55:30;5.43;;;3.35;;
48685;SDS011;34485;51.536;3.816;2022-09-01T11:00:52;3.33;;;3.13;;
48685;SDS011;34485;51.536;3.816;2022-09-01T11:13:35;4.05;;;3.03;;
48685;SDS011;34485;51.536;3.816;2022-09-01T11:18:49;5.03;;;3.37;;
48685;SDS011;34485;51.536;3.816;2022-09-01T11:26:55;4.53;;;2.80;;
48685;SDS011;34485;51.536;3.816;2022-09-01T11:32:33;4.25;;;3.45;;
48685;SDS011;34485;51.536;3.816;2022-09-01T11:35:12;3.33;;;3.00;;
48685;SDS011;34485;51.536;3.816;2022-09-01T11:37:51;5.68;;;2.97;;
48685;SDS011;34485;51.536;3.816;2022-09-01T11:40:27;4.78;;;3.45;;
48685;SDS011;34485;51.536;3.816;2022-09-01T11:42:55;7.73;;;2.77;;
48685;SDS011;34485;51.536;3.816;2022-09-01T11:45:24;3.30;;;3.00;;
48685;SDS011;34485;51.536;3.816;2022-09-01T11:47:53;6.32;;;3.47;;
48685;SDS011;34485;51.536;3.816;2022-09-01T11:50:29;4.90;;;3.00;;
48685;SDS011;34485;51.536;3.816;2022-09-01T11:55:49;10.63;;;3.10;;
48685;SDS011;34485;51.536;3.816;2022-09-01T12:00:52;3.92;;;2.67;;
48685;SDS011;34485;51.536;3.816;2022-09-01T12:03:27;7.25;;;3.25;;
48685;SDS011;34485;51.536;3.816;2022-09-01T12:05:57;8.13;;;2.90;;
48685;SDS011;34485;51.536;3.816;2022-09-01T12:08:29;6.20;;;3.20;;
48685;SDS011;34485;51.536;3.816;2022-09-01T12:11:08;7.95;;;3.20;;
48685;SDS011;34485;51.536;3.816;2022-09-01T12:13:38;9.57;;;3.25;;
48685;SDS011;34485;51.536;3.816;2022-09-01T12:16:06;3.53;;;2.72;;
48685;SDS011;34485;51.536;3.816;2022-09-01T12:18:42;4.72;;;2.63;;
48685;SDS011;34485;51.536;3.816;2022-09-01T12:21:17;5.47;;;1.97;;
48685;SDS011;34485;51.536;3.816;2022-09-01T12:26:40;3.85;;;2.33;;
48685;SDS011;34485;51.536;3.816;2022-09-01T12:29:07;2.45;;;2.20;;
48685;SDS011;34485;51.536;3.816;2022-09-01T12:31:35;3.08;;;2.10;;
48685;SDS011;34485;51.536;3.816;2022-09-01T12:34:01;4.60;;;2.30;;
48685;SDS011;34485;51.536;3.816;2022-09-01T12:39:17;4.10;;;2.13;;
48685;SDS011;34485;51.536;3.816;2022-09-01T12:41:42;2.80;;;2.20;;
48685;SDS011;34485;51.536;3.816;2022-09-01T12:49:59;4.07;;;2.38;;
48685;SDS011;34485;51.536;3.816;2022-09-01T12:52:26;2.80;;;2.27;;
48685;SDS011;34485;51.536;3.816;2022-09-01T12:57:33;3.00;;;2.47;;
48685;SDS011;34485;51.536;3.816;2022-09-01T13:05:29;2.43;;;1.90;;
48685;SDS011;34485;51.536;3.816;2022-09-01T13:08:01;2.67;;;1.90;;
48685;SDS011;34485;51.536;3.816;2022-09-01T13:10:35;33.25;;;3.38;;
48685;SDS011;34485;51.536;3.816;2022-09-01T13:13:04;9.93;;;2.08;;
48685;SDS011;34485;51.536;3.816;2022-09-01T13:15:30;8.88;;;2.50;;
48685;SDS011;34485;51.536;3.816;2022-09-01T13:17:56;3.20;;;1.97;;
48685;SDS011;34485;51.536;3.816;2022-09-01T13:20:22;6.15;;;2.42;;
48685;SDS011;34485;51.536;3.816;2022-09-01T13:22:48;2.60;;;2.40;;
48685;SDS011;34485;51.536;3.816;2022-09-01T13:25:15;3.92;;;2.63;;
48685;SDS011;34485;51.536;3.816;2022-09-01T13:27:44;2.00;;;1.77;;
48685;SDS011;34485;51.536;3.816;2022-09-01T13:30:12;3.55;;;2.67;;
48685;SDS011;34485;51.536;3.816;2022-09-01T13:32:40;2.40;;;2.20;;
48685;SDS011;34485;51.536;3.816;2022-09-01T13:35:06;4.13;;;2.20;;
48685;SDS011;34485;51.536;3.816;2022-09-01T13:37:33;3.92;;;2.25;;
48685;SDS011;34485;51.536;3.816;2022-09-01T13:39:59;3.80;;;2.40;;
48685;SDS011;34485;51.536;3.816;2022-09-01T13:42:25;5.20;;;2.42;;
48685;SDS011;34485;51.536;3.816;2022-09-01T13:44:51;3.50;;;1.90;;
48685;SDS011;34485;51.536;3.816;2022-09-01T13:47:17;5.70;;;2.50;;
48685;SDS011;34485;51.536;3.816;2022-09-01T13:49:42;3.93;;;2.10;;
48685;SDS011;34485;51.536;3.816;2022-09-01T13:52:08;2.57;;;2.40;;
48685;SDS011;34485;51.536;3.816;2022-09-01T13:54:34;5.35;;;2.13;;
48685;SDS011;34485;51.536;3.816;2022-09-01T13:57:00;2.27;;;2.17;;
48685;SDS011;34485;51.536;3.816;2022-09-01T13:59:25;3.05;;;1.70;;
48685;SDS011;34485;51.536;3.816;2022-09-01T14:01:51;6.53;;;2.60;;
48685;SDS011;34485;51.536;3.816;2022-09-01T14:04:16;2.45;;;2.25;;
48685;SDS011;34485;51.536;3.816;2022-09-01T14:06:43;2.17;;;2.03;;
48685;SDS011;34485;51.536;3.816;2022-09-01T14:09:10;3.73;;;2.30;;
48685;SDS011;34485;51.536;3.816;2022-09-01T14:11:37;3.20;;;2.15;;
48685;SDS011;34485;51.536;3.816;2022-09-01T14:14:03;2.10;;;1.90;;
48685;SDS011;34485;51.536;3.816;2022-09-01T14:16:28;3.50;;;2.10;;
48685;SDS011;34485;51.536;3.816;2022-09-01T14:18:54;2.45;;;1.83;;
48685;SDS011;34485;51.536;3.816;2022-09-01T14:21:20;3.97;;;2.50;;
48685;SDS011;34485;51.536;3.816;2022-09-01T14:23:46;8.43;;;2.10;;
48685;SDS011;34485;51.536;3.816;2022-09-01T14:26:13;7.13;;;2.03;;
48685;SDS011;34485;51.536;3.816;2022-09-01T14:28:40;2.10;;;1.90;;
48685;SDS011;34485;51.536;3.816;2022-09-01T14:31:10;2.00;;;1.90;;
48685;SDS011;34485;51.536;3.816;2022-09-01T14:33:38;2.22;;;2.03;;
48685;SDS011;34485;51.536;3.816;2022-09-01T14:36:04;3.13;;;1.83;;
48685;SDS011;34485;51.536;3.816;2022-09-01T14:38:31;4.32;;;1.60;;
48685;SDS011;34485;51.536;3.816;2022-09-01T14:40:58;1.80;;;1.70;;
48685;SDS011;34485;51.536;3.816;2022-09-01T14:43:23;3.33;;;2.10;;
48685;SDS011;34485;51.536;3.816;2022-09-01T14:46:00;6.68;;;1.90;;
48685;SDS011;34485;51.536;3.816;2022-09-01T14:48:30;3.70;;;2.45;;
48685;SDS011;34485;51.536;3.816;2022-09-01T14:50:56;2.20;;;2.00;;
48685;SDS011;34485;51.536;3.816;2022-09-01T14:53:23;3.97;;;1.90;;
48685;SDS011;34485;51.536;3.816;2022-09-01T14:55:48;1.83;;;1.73;;
48685;SDS011;34485;51.536;3.816;2022-09-01T14:58:14;5.73;;;2.07;;
48685;SDS011;34485;51.536;3.816;2022-09-01T15:00:41;4.20;;;2.35;;
48685;SDS011;34485;51.536;3.816;2022-09-01T15:03:08;7.32;;;1.70;;
48685;SDS011;34485;51.536;3.816;2022-09-01T15:05:34;2.07;;;1.93;;
48685;SDS011;34485;51.536;3.816;2022-09-01T15:08:01;2.92;;;1.70;;
48685;SDS011;34485;51.536;3.816;2022-09-01T15:10:26;2.00;;;1.90;;
48685;SDS011;34485;51.536;3.816;2022-09-01T15:12:53;4.70;;;1.70;;
48685;SDS011;34485;51.536;3.816;2022-09-01T15:15:20;2.08;;;1.60;;
48685;SDS011;34485;51.536;3.816;2022-09-01T15:17:46;2.28;;;1.80;;
48685;SDS011;34485;51.536;3.816;2022-09-01T15:20:12;2.13;;;1.98;;
48685;SDS011;34485;51.536;3.816;2022-09-01T15:22:56;2.30;;;2.03;;
48685;SDS011;34485;51.536;3.816;2022-09-01T15:25:22;1.88;;;1.70;;
48685;SDS011;34485;51.536;3.816;2022-09-01T15:27:48;5.28;;;1.90;;
48685;SDS011;34485;51.536;3.816;2022-09-01T15:30:14;1.60;;;1.50;;
48685;SDS011;34485;51.536;3.816;2022-09-01T15:32:44;1.70;;;1.60;;
48685;SDS011;34485;51.536;3.816;2022-09-01T15:35:12;11.60;;;2.42;;
48685;SDS011;34485;51.536;3.816;2022-09-01T15:37:38;1.83;;;1.73;;
48685;SDS011;34485;51.536;3.816;2022-09-01T15:40:05;2.40;;;2.20;;
48685;SDS011;34485;51.536;3.816;2022-09-01T15:42:32;4.37;;;1.77;;
48685;SDS011;34485;51.536;3.816;2022-09-01T15:45:02;3.03;;;1.60;;
48685;SDS011;34485;51.536;3.816;2022-09-01T15:47:30;2.30;;;1.98;;
48685;SDS011;34485;51.536;3.816;2022-09-01T15:49:56;1.80;;;1.70;;
48685;SDS011;34485;51.536;3.816;2022-09-01T15:52:21;2.95;;;2.35;;
48685;SDS011;34485;51.536;3.816;2022-09-01T15:54:47;1.67;;;1.50;;
48685;SDS011;34485;51.536;3.816;2022-09-01T15:57:13;5.47;;;1.67;;
48685;SDS011;34485;51.536;3.816;2022-09-01T15:59:38;2.20;;;1.73;;
48685;SDS011;34485;51.536;3.816;2022-09-01T16:02:06;1.58;;;1.48;;
48685;SDS011;34485;51.536;3.816;2022-09-01T16:04:33;5.30;;;2.28;;
48685;SDS011;34485;51.536;3.816;2022-09-01T16:06:59;2.00;;;1.70;;
48685;SDS011;34485;51.536;3.816;2022-09-01T16:09:24;4.00;;;1.70;;
48685;SDS011;34485;51.536;3.816;2022-09-01T16:11:51;2.17;;;1.73;;
48685;SDS011;34485;51.536;3.816;2022-09-01T16:14:17;2.50;;;1.63;;
48685;SDS011;34485;51.536;3.816;2022-09-01T16:22:27;1.80;;;1.70;;
48685;SDS011;34485;51.536;3.816;2022-09-01T16:24:59;1.85;;;1.75;;
48685;SDS011;34485;51.536;3.816;2022-09-01T16:27:36;4.33;;;1.60;;